Time;durP1;ratioP1;P1;durP2;ratioP2;P2;SDS_P1;SDS_P2;PMS_P1;PMS_P2;Temp;Humidity;BMP_temperature;BMP_pressure;BME280_temperature;BME280_humidity;BME280_pressure;Samples;Min_cycle;Max_cycle;Signal;HPM_P1;HPM_P2
2021/08/24 00:04:18;;;;;;;1999.90;999.90;;;;;;;17.51;67.21;101990.69;15747985;28;20043;-62
2021/08/24 00:11:50;;;;;;;1999.90;999.90;;;;;;;17.40;67.33;101989.47;15746128;28;20501;-63
2021/08/24 00:19:23;;;;;;;1999.90;999.90;;;;;;;17.52;67.16;101989.50;15744007;28;20075;-63
2021/08/24 00:26:56;;;;;;;1999.90;999.90;;;;;;;17.31;66.93;101993.22;15744448;28;20413;-63
2021/08/24 00:34:29;;;;;;;1999.90;999.90;;;;;;;17.28;67.77;101998.72;15726107;28;20489;-63
2021/08/24 00:42:02;;;;;;;1999.90;999.90;;;;;;;17.38;67.58;102005.91;15741859;28;20053;-63
2021/08/24 00:49:35;;;;;;;1999.90;999.90;;;;;;;17.18;68.42;102004.78;15743687;28;20405;-63
2021/08/24 00:57:11;;;;;;;1999.90;999.90;;;;;;;16.87;68.56;101994.78;15742662;28;20075;-63
2021/08/24 01:04:47;;;;;;;1999.90;999.90;;;;;;;16.80;69.52;102008.63;15743057;28;20055;-63
2021/08/24 01:12:37;;;;;;;1999.90;999.90;;;;;;;16.79;69.93;102012.63;15743651;28;20059;-62
2021/08/24 01:20:32;;;;;;;1999.90;999.90;;;;;;;16.60;70.43;102015.91;15726983;28;20048;-63
2021/08/24 01:28:12;;;;;;;1999.90;999.90;;;;;;;16.42;71.30;102026.44;15731936;28;20425;-62
2021/08/24 01:36:09;;;;;;;1999.90;999.90;;;;;;;16.40;71.85;102022.31;15742963;28;20070;-63
2021/08/24 01:43:50;;;;;;;1999.90;999.90;;;;;;;15.97;72.97;102025.38;15742769;28;20079;-63
2021/08/24 01:51:30;;;;;;;1999.90;999.90;;;;;;;15.99;73.26;102023.06;15746246;28;20144;-63
2021/08/24 01:59:08;;;;;;;1999.90;999.90;;;;;;;15.72;73.97;102030.75;15743421;28;20389;-63
2021/08/24 02:06:44;;;;;;;1999.90;999.90;;;;;;;15.80;73.85;102031.91;15749087;28;20037;-63
2021/08/24 02:14:16;;;;;;;1999.90;999.90;;;;;;;15.73;74.22;102049.28;15755989;28;20044;-63
2021/08/24 02:21:53;;;;;;;1999.90;999.90;;;;;;;15.44;75.29;102047.22;15754595;28;20044;-63
2021/08/24 02:29:25;;;;;;;1999.90;999.90;;;;;;;15.59;74.81;102057.91;15754670;28;20042;-62
2021/08/24 02:37:06;;;;;;;1999.90;999.90;;;;;;;15.58;75.25;102058.25;15752337;28;20430;-62
2021/08/24 02:44:42;;;;;;;1999.90;999.90;;;;;;;15.46;75.08;102058.13;15749276;28;20079;-62
2021/08/24 02:52:16;;;;;;;1999.90;999.90;;;;;;;15.29;76.08;102058.97;15751465;28;20044;-62
2021/08/24 02:59:49;;;;;;;1999.90;999.90;;;;;;;15.26;75.97;102056.84;15750612;28;20037;-62
2021/08/24 03:07:27;;;;;;;1999.90;999.90;;;;;;;15.49;74.80;102058.28;15749127;28;20037;-62
2021/08/24 03:15:07;;;;;;;1999.90;999.90;;;;;;;15.31;76.49;102062.28;15749029;28;20122;-63
2021/08/24 03:22:42;;;;;;;1999.90;999.90;;;;;;;15.23;76.78;102066.75;15747622;28;20060;-62
2021/08/24 03:30:17;;;;;;;1999.90;999.90;;;;;;;15.09;77.88;102076.50;15749711;28;20049;-63
2021/08/24 03:37:51;;;;;;;1999.90;999.90;;;;;;;15.18;77.19;102069.72;15749491;28;20063;-63
2021/08/24 03:45:23;;;;;;;;;;;;;;;15.22;76.24;102084.81;15749425;28;20420;-62
2021/08/24 03:52:57;;;;;;;1999.90;999.90;;;;;;;14.99;77.92;102088.91;15747908;28;19920;-63
2021/08/24 04:00:29;;;;;;;;;;;;;;;15.10;77.31;102097.84;15750345;28;20040;-63
2021/08/24 04:08:02;;;;;;;1999.90;999.90;;;;;;;14.87;78.51;102099.97;15743282;28;20293;-58
2021/08/24 04:15:35;;;;;;;;;;;;;;;14.75;78.81;102102.63;15742848;28;20072;-61
2021/08/24 04:23:15;;;;;;;1999.90;999.90;;;;;;;14.90;78.41;102110.56;15742403;28;19924;-59
2021/08/24 04:30:47;;;;;;;1999.90;999.90;;;;;;;14.91;77.82;102115.06;15739088;28;20055;-60
2021/08/24 04:38:21;;;;;;;1999.90;999.90;;;;;;;15.13;76.70;102111.25;15735543;28;20044;-61
2021/08/24 04:45:54;;;;;;;1999.90;999.90;;;;;;;14.99;78.14;102123.47;15722595;28;20097;-59
2021/08/24 04:53:29;;;;;;;1999.90;999.90;;;;;;;15.26;77.33;102132.75;15739752;28;20098;-59
2021/08/24 05:01:20;;;;;;;1999.90;999.90;;;;;;;15.34;77.15;102143.19;15740084;28;20048;-59
2021/08/24 05:08:53;;;;;;;1999.90;999.90;;;;;;;15.31;77.13;102143.81;15740388;28;20622;-61
2021/08/24 05:16:25;;;;;;;;;;;;;;;15.82;75.13;102140.16;15739208;28;20060;-60
2021/08/24 05:23:59;;;;;;;1999.90;999.90;;;;;;;16.10;74.49;102148.22;15741386;28;19924;-61
2021/08/24 05:31:31;;;;;;;;;;;;;;;16.41;72.83;102145.13;15738962;28;20040;-61
2021/08/24 05:39:05;;;;;;;1999.90;999.90;;;;;;;16.61;71.78;102161.25;15738960;28;19966;-62
2021/08/24 05:46:37;;;;;;;1999.90;999.90;;;;;;;16.97;70.63;102162.72;15739882;28;20382;-61
2021/08/24 05:54:11;;;;;;;1999.90;999.90;;;;;;;17.07;70.43;102172.78;15739429;28;20117;-60
2021/08/24 06:01:44;;;;;;;1999.90;999.90;;;;;;;17.27;69.24;102172.81;15738312;28;20048;-59
2021/08/24 06:09:17;;;;;;;1999.90;999.90;;;;;;;17.47;68.67;102181.63;15740046;28;20090;-60
2021/08/24 06:16:55;;;;;;;1999.90;999.90;;;;;;;17.96;67.31;102177.03;15720852;28;20048;-60
2021/08/24 06:24:30;;;;;;;1999.90;999.90;;;;;;;18.53;66.20;102164.06;15738118;28;20059;-59
2021/08/24 06:32:05;;;;;;;1999.90;999.90;;;;;;;18.85;64.59;102177.28;15738714;28;20123;-61
2021/08/24 06:39:43;;;;;;;1999.90;999.90;;;;;;;18.92;64.57;102182.34;15740215;28;20051;-62
2021/08/24 06:47:15;;;;;;;1999.90;999.90;;;;;;;19.05;63.44;102186.81;15744715;28;20555;-61
2021/08/24 06:54:48;;;;;;;1999.90;999.90;;;;;;;19.46;61.65;102204.66;15745684;28;20036;-64
2021/08/24 07:02:21;;;;;;;1999.90;999.90;;;;;;;20.15;60.49;102204.28;15743926;28;20052;-60
2021/08/24 07:09:55;;;;;;;1999.90;999.90;;;;;;;20.37;60.46;102204.84;15745388;28;20045;-62
2021/08/24 07:17:27;;;;;;;1999.90;999.90;;;;;;;20.49;59.12;102204.81;15745165;28;20570;-61
2021/08/24 07:25:03;;;;;;;1999.90;999.90;;;;;;;20.51;58.20;102205.25;15744909;28;20617;-61
2021/08/24 07:32:36;;;;;;;1999.90;999.90;;;;;;;20.82;58.53;102217.78;15743457;28;20044;-61
2021/08/24 07:40:15;;;;;;;1999.90;999.90;;;;;;;21.57;55.36;102214.72;15743835;28;20055;-62
2021/08/24 07:47:47;;;;;;;1999.90;999.90;;;;;;;21.79;55.25;102225.34;15743291;28;20068;-63
2021/08/24 07:55:21;;;;;;;1999.90;999.90;;;;;;;22.00;54.25;102232.69;15742767;28;20057;-63
2021/08/24 08:02:54;;;;;;;1999.90;999.90;;;;;;;21.73;53.91;102218.31;15725324;28;20085;-62
2021/08/24 08:10:27;;;;;;;1999.90;999.90;;;;;;;22.27;52.85;102231.59;15751911;28;20127;-61
2021/08/24 08:18:01;;;;;;;1999.90;999.90;;;;;;;22.81;52.62;102241.09;15738442;28;20040;-62
2021/08/24 08:25:35;;;;;;;1999.90;999.90;;;;;;;22.36;50.97;102235.03;15741699;28;20040;-61
2021/08/24 08:33:07;;;;;;;1999.90;999.90;;;;;;;23.20;49.83;102242.59;15742838;28;20513;-62
2021/08/24 08:40:50;;;;;;;1999.90;999.90;;;;;;;23.94;49.07;102250.56;15738235;28;20084;-62
2021/08/24 08:48:39;;;;;;;1999.90;999.90;;;;;;;24.26;47.96;102258.69;15740765;28;20040;-61
2021/08/24 08:56:19;;;;;;;1999.90;999.90;;;;;;;24.11;47.78;102252.00;15742589;28;20090;-62
2021/08/24 09:03:59;;;;;;;1999.90;999.90;;;;;;;23.07;47.95;102255.41;15738839;28;20102;-61
2021/08/24 09:11:41;;;;;;;1999.90;999.90;;;;;;;23.01;46.89;102266.28;15739564;28;20067;-59
2021/08/24 09:19:19;;;;;;;1999.90;999.90;;;;;;;23.27;45.93;102268.34;15739026;28;20056;-63
2021/08/24 09:26:59;;;;;;;1999.90;999.90;;;;;;;24.56;43.84;102270.03;15739771;28;20090;-61
2021/08/24 09:34:38;;;;;;;1999.90;999.90;;;;;;;23.95;44.58;102277.88;15738425;28;20041;-61
2021/08/24 09:42:12;;;;;;;1999.90;999.90;;;;;;;22.47;47.66;102281.56;15738891;28;20543;-62
2021/08/24 09:49:45;;;;;;;1999.90;999.90;;;;;;;21.87;47.40;102291.66;15738134;28;20041;-61
2021/08/24 09:57:21;;;;;;;;;;;;;;;22.38;45.91;102283.00;15737015;28;20041;-62
2021/08/24 10:04:54;;;;;;;1999.90;999.90;;;;;;;23.71;46.00;102269.81;15738635;28;19920;-59
2021/08/24 10:12:30;;;;;;;1999.90;999.90;;;;;;;24.34;43.73;102284.06;15738663;28;20127;-62
2021/08/24 10:20:04;;;;;;;1999.90;999.90;;;;;;;25.70;42.71;102286.09;15748110;28;20128;-59
2021/08/24 10:27:42;;;;;;;1999.90;999.90;;;;;;;26.25;41.81;102282.25;15730844;28;20497;-60
2021/08/24 10:35:18;;;;;;;1999.90;999.90;;;;;;;26.37;39.46;102285.59;15730771;28;20044;-61
2021/08/24 10:43:17;;;;;;;1999.90;999.90;;;;;;;26.74;38.29;102270.94;15747565;28;20788;-59
2021/08/24 10:50:57;;;;;;;1999.90;999.90;;;;;;;26.77;36.28;102266.44;15747231;28;20048;-62
2021/08/24 10:58:36;;;;;;;1999.90;999.90;;;;;;;27.59;34.96;102267.19;15747402;28;20043;-63
2021/08/24 11:06:18;;;;;;;1999.90;999.90;;;;;;;28.83;35.59;102276.44;15747095;28;20044;-62
2021/08/24 11:13:59;;;;;;;1999.90;999.90;;;;;;;26.53;39.71;102276.63;15744880;28;20052;-63
2021/08/24 11:21:38;;;;;;;1999.90;999.90;;;;;;;26.85;36.74;102262.34;15746164;28;20056;-62
2021/08/24 11:29:26;;;;;;;1999.90;999.90;;;;;;;28.38;36.64;102270.63;15742564;28;20132;-60
2021/08/24 11:37:05;;;;;;;1999.90;999.90;;;;;;;26.83;37.76;102273.41;15738580;28;20393;-62
2021/08/24 11:44:47;;;;;;;1999.90;999.90;;;;;;;28.45;35.94;102278.34;15745177;28;20131;-61
2021/08/24 11:52:27;;;;;;;1999.90;999.90;;;;;;;25.25;39.25;102271.09;15741191;28;20040;-61
2021/08/24 12:00:01;;;;;;;1999.90;999.90;;;;;;;26.56;34.72;102278.66;15740376;28;20131;-62
2021/08/24 12:07:45;;;;;;;1999.90;999.90;;;;;;;29.12;29.91;102267.63;15736323;28;20093;-60
2021/08/24 12:15:36;;;;;;;1999.90;999.90;;;;;;;29.63;31.28;102272.47;15734060;28;20090;-62
2021/08/24 12:23:13;;;;;;;1999.90;999.90;;;;;;;29.39;31.04;102264.88;15741983;28;20048;-59
2021/08/24 12:31:24;;;;;;;1999.90;999.90;;;;;;;29.13;29.93;102264.31;15741423;28;20045;-59
2021/08/24 12:39:01;;;;;;;1999.90;999.90;;;;;;;31.26;27.86;102257.78;15702013;28;20088;-63
2021/08/24 12:46:35;;;;;;;1999.90;999.90;;;;;;;28.31;31.01;102255.47;15740326;28;20076;-61
2021/08/24 12:54:10;;;;;;;1999.90;999.90;;;;;;;30.55;27.78;102258.91;15740597;28;20048;-60
2021/08/24 13:01:42;;;;;;;1999.90;999.90;;;;;;;34.19;24.92;102251.47;15739754;28;20048;-59
2021/08/24 13:09:30;;;;;;;1999.90;999.90;;;;;;;32.56;26.05;102243.06;15737735;28;20044;-61
2021/08/24 13:17:03;;;;;;;1999.90;999.90;;;;;;;30.18;28.12;102249.16;15736551;28;20090;-59
2021/08/24 13:24:40;;;;;;;1999.90;999.90;;;;;;;30.97;27.64;102239.31;15739129;28;20056;-61
2021/08/24 13:32:26;;;;;;;1999.90;999.90;;;;;;;29.49;30.96;102233.19;15738620;28;20049;-60
2021/08/24 13:40:05;;;;;;;1999.90;999.90;;;;;;;29.72;31.47;102232.50;15740801;28;20053;-61
2021/08/24 13:47:37;;;;;;;1999.90;999.90;;;;;;;27.90;30.48;102225.31;15741261;28;20518;-61
2021/08/24 13:55:17;;;;;;;;;;;;;;;27.60;31.53;102227.88;15754441;28;20127;-62
2021/08/24 14:02:52;;;;;;;1999.90;999.90;;;;;;;25.98;36.58;102227.41;15753283;28;20361;-61
2021/08/24 14:10:29;;;;;;;1999.90;999.90;;;;;;;25.81;34.32;102217.53;15751257;28;20040;-60
2021/08/24 14:18:04;;;;;;;1999.90;999.90;;;;;;;25.61;36.49;102222.72;15732756;28;20513;-62
2021/08/24 14:25:41;;;;;;;1999.90;999.90;;;;;;;24.48;34.59;102212.06;15746284;28;20397;-61
2021/08/24 14:33:17;;;;;;;1999.90;999.90;;;;;;;24.53;37.80;102200.31;15748300;28;20512;-61
2021/08/24 14:40:51;;;;;;;1999.90;999.90;;;;;;;25.25;36.81;102205.38;15747903;28;20047;-61
2021/08/24 14:48:27;;;;;;;1999.90;999.90;;;;;;;24.18;36.26;102198.72;15747363;28;20036;-62
2021/08/24 14:56:07;;;;;;;1999.90;999.90;;;;;;;24.17;37.32;102196.25;15747226;28;20517;-61
2021/08/24 15:04:00;;;;;;;1999.90;999.90;;;;;;;24.12;38.33;102191.72;15744893;28;20098;-60
2021/08/24 15:11:39;;;;;;;1999.90;999.90;;;;;;;24.49;38.24;102199.47;15743963;28;20044;-60
2021/08/24 15:19:25;;;;;;;1999.90;999.90;;;;;;;24.33;38.73;102196.03;15706067;28;20114;-58
2021/08/24 15:27:00;;;;;;;1999.90;999.90;;;;;;;24.26;38.97;102188.19;15733930;28;20508;-58
2021/08/24 15:34:36;;;;;;;1999.90;999.90;;;;;;;24.37;38.28;102194.03;15760100;28;20498;-61
2021/08/24 15:42:25;;;;;;;1999.90;999.90;;;;;;;24.60;38.85;102188.97;15736766;28;20067;-61
2021/08/24 15:50:00;;;;;;;1999.90;999.90;;;;;;;24.15;41.21;102184.41;15744828;28;20083;-63
2021/08/24 15:57:33;;;;;;;1999.90;999.90;;;;;;;23.90;40.83;102187.00;15743963;28;20059;-61
2021/08/24 16:05:12;;;;;;;;;;;;;;;23.48;41.75;102188.06;15745407;28;20413;-62
2021/08/24 16:12:46;;;;;;;1999.90;999.90;;;;;;;23.32;41.87;102185.41;15747415;28;19920;-61
2021/08/24 16:20:20;;;;;;;;;;;;;;;23.56;43.91;102189.00;15743855;28;20257;-62
2021/08/24 16:27:52;;;;;;;1999.90;999.90;;;;;;;23.31;42.77;102178.06;15745472;28;19920;-62
2021/08/24 16:35:30;;;;;;;1999.90;999.90;;;;;;;23.71;44.01;102175.78;15742875;28;20524;-63
2021/08/24 16:43:03;;;;;;;1999.90;999.90;;;;;;;23.53;43.80;102166.97;15742068;28;20059;-61
2021/08/24 16:50:41;;;;;;;1999.90;999.90;;;;;;;22.82;41.70;102158.19;15741611;28;20443;-62
2021/08/24 16:58:13;;;;;;;1999.90;999.90;;;;;;;22.77;43.12;102164.22;15738488;28;20128;-62
2021/08/24 17:05:47;;;;;;;1999.90;999.90;;;;;;;22.55;43.13;102157.34;15741307;28;20056;-63
2021/08/24 17:13:20;;;;;;;1999.90;999.90;;;;;;;22.89;46.54;102175.41;15744941;28;20047;-62
2021/08/24 17:20:55;;;;;;;1999.90;999.90;;;;;;;22.17;44.14;102164.81;15744281;28;20526;-63
2021/08/24 17:28:31;;;;;;;1999.90;999.90;;;;;;;22.09;44.73;102184.94;15721423;28;20037;-62
2021/08/24 17:36:08;;;;;;;1999.90;999.90;;;;;;;22.19;46.37;102178.66;15744487;28;20090;-61
2021/08/24 17:43:40;;;;;;;1999.90;999.90;;;;;;;22.15;47.53;102189.97;15743833;28;20053;-61
2021/08/24 17:51:17;;;;;;;1999.90;999.90;;;;;;;21.56;46.93;102201.69;15741525;28;20396;-61
2021/08/24 17:58:49;;;;;;;1999.90;999.90;;;;;;;21.42;48.46;102207.06;15734846;28;20044;-61
2021/08/24 18:06:33;;;;;;;1999.90;999.90;;;;;;;21.42;47.76;102190.03;15737285;28;20067;-60
2021/08/24 18:14:06;;;;;;;1999.90;999.90;;;;;;;21.33;49.57;102187.41;15739992;28;20048;-61
2021/08/24 18:21:39;;;;;;;1999.90;999.90;;;;;;;21.21;48.70;102194.00;15739306;28;20036;-64
2021/08/24 18:29:12;;;;;;;1999.90;999.90;;;;;;;20.51;50.54;102198.75;15732358;28;20041;-64
2021/08/24 18:36:49;;;;;;;1999.90;999.90;;;;;;;20.89;49.98;102206.63;15748583;28;20497;-63
2021/08/24 18:44:21;;;;;;;1999.90;999.90;;;;;;;20.45;50.34;102201.88;15745285;28;20098;-62
2021/08/24 18:51:56;;;;;;;1999.90;999.90;;;;;;;20.26;50.66;102212.25;15746181;28;20417;-62
2021/08/24 18:59:29;;;;;;;1999.90;999.90;;;;;;;20.25;51.70;102219.94;15745281;28;20045;-62
2021/08/24 19:07:05;;;;;;;1999.90;999.90;;;;;;;20.17;51.82;102223.75;15748086;28;20041;-62
2021/08/24 19:14:40;;;;;;;1999.90;999.90;;;;;;;19.68;52.56;102226.78;15746528;28;20078;-61
2021/08/24 19:22:15;;;;;;;1999.90;999.90;;;;;;;19.68;52.83;102217.47;15747668;28;20033;-62
2021/08/24 19:29:47;;;;;;;1999.90;999.90;;;;;;;19.59;52.33;102235.47;15753126;28;20116;-63
2021/08/24 19:37:23;;;;;;;1999.90;999.90;;;;;;;19.39;53.18;102224.28;15758911;28;20033;-62
2021/08/24 19:44:59;;;;;;;1999.90;999.90;;;;;;;19.35;52.91;102223.31;15747785;28;20051;-61
2021/08/24 19:52:32;;;;;;;1999.90;999.90;;;;;;;19.02;54.00;102219.47;15746500;28;20040;-62
2021/08/24 20:00:06;;;;;;;1999.90;999.90;;;;;;;19.01;54.27;102229.13;15748055;28;20040;-62
2021/08/24 20:07:40;;;;;;;1999.90;999.90;;;;;;;18.96;54.86;102222.88;15743718;28;20111;-62
2021/08/24 20:15:16;;;;;;;1999.90;999.90;;;;;;;18.98;55.19;102224.19;15748651;28;20448;-64
2021/08/24 20:22:51;;;;;;;1999.90;999.90;;;;;;;18.72;54.65;102218.88;15748840;28;20131;-64
2021/08/24 20:30:26;;;;;;;1999.90;999.90;;;;;;;18.64;55.92;102199.16;15749096;28;20489;-62
2021/08/24 20:38:00;;;;;;;1999.90;999.90;;;;;;;18.42;56.73;102191.97;15746046;28;20041;-63
2021/08/24 20:45:34;;;;;;;1999.90;999.90;;;;;;;18.23;55.84;102195.34;15751910;28;20059;-61
2021/08/24 20:53:11;;;;;;;1999.90;999.90;;;;;;;18.26;56.76;102186.19;15739577;28;20413;-62
2021/08/24 21:00:50;;;;;;;1999.90;999.90;;;;;;;18.04;58.10;102183.78;15744063;28;20037;-62
2021/08/24 21:08:29;;;;;;;1999.90;999.90;;;;;;;17.79;58.94;102175.19;15746981;28;20048;-61
2021/08/24 21:16:02;;;;;;;1999.90;999.90;;;;;;;17.53;59.97;102178.25;15744451;28;20052;-63
2021/08/24 21:23:35;;;;;;;1999.90;999.90;;;;;;;17.37;60.85;102184.84;15744138;28;20044;-62
2021/08/24 21:31:07;;;;;;;1999.90;999.90;;;;;;;17.15;61.97;102177.56;15743285;28;20408;-62
2021/08/24 21:38:43;;;;;;;1999.90;999.90;;;;;;;16.92;62.47;102175.06;15745262;28;20041;-61
2021/08/24 21:46:16;;;;;;;1999.90;999.90;;;;;;;16.85;62.93;102180.38;15747029;28;20104;-62
2021/08/24 21:53:50;;;;;;;1999.90;999.90;;;;;;;16.66;63.91;102186.41;15741565;28;20037;-62
2021/08/24 22:01:22;;;;;;;1999.90;999.90;;;;;;;16.49;64.20;102180.88;15740105;28;20482;-60
2021/08/24 22:08:56;;;;;;;1999.90;999.90;;;;;;;16.42;65.01;102172.13;15744346;28;20098;-61
2021/08/24 22:16:30;;;;;;;1999.90;999.90;;;;;;;16.22;65.65;102167.22;15754459;28;20059;-62
2021/08/24 22:24:10;;;;;;;1999.90;999.90;;;;;;;16.09;66.04;102157.84;15738132;28;20060;-61
2021/08/24 22:31:42;;;;;;;1999.90;999.90;;;;;;;15.94;66.18;102153.53;15755552;28;20045;-61
2021/08/24 22:39:16;;;;;;;1999.90;999.90;;;;;;;15.81;66.64;102144.16;15755773;28;20040;-61
2021/08/24 22:46:51;;;;;;;1999.90;999.90;;;;;;;15.52;67.83;102136.38;15755818;28;20044;-63
2021/08/24 22:54:25;;;;;;;1999.90;999.90;;;;;;;15.61;67.59;102132.75;15751481;28;20044;-63
2021/08/24 23:01:57;;;;;;;;;;;;;;;15.53;67.95;102131.59;15752485;28;20063;-62
2021/08/24 23:09:30;;;;;;;1999.90;999.90;;;;;;;15.34;67.96;102126.31;15742963;28;19932;-59
2021/08/24 23:17:03;;;;;;;;;;;;;;;15.24;68.11;102119.03;15743914;28;20230;-63
2021/08/24 23:24:37;;;;;;;1999.90;999.90;;;;;;;15.07;68.56;102113.41;15749968;28;20373;-63
2021/08/24 23:32:09;;;;;;;1999.90;999.90;;;;;;;14.73;69.50;102098.16;15751052;28;20079;-63
2021/08/24 23:39:43;;;;;;;1999.90;999.90;;;;;;;14.68;69.78;102098.28;15748943;28;20044;-62
2021/08/24 23:47:18;;;;;;;1999.90;999.90;;;;;;;14.61;70.27;102099.97;15747119;28;20051;-62
2021/08/24 23:54:51;;;;;;;1999.90;999.90;;;;;;;14.55;70.86;102098.44;15747194;28;20052;-63
